Time;durP1;ratioP1;P1;durP2;ratioP2;P2;SDS_P1;SDS_P2;PMS_P1;PMS_P2;Temp;Humidity;BMP_temperature;BMP_pressure;BME280_temperature;BME280_humidity;BME280_pressure;Samples;Min_cycle;Max_cycle;Signal;HPM_P1;HPM_P2
2022/02/05 00:00:36;;;;;;;1.20;0.57;;;5.90;1.00;;;;;;5128110;27;20435;-59
2022/02/05 00:40:46;;;;;;;3.03;0.60;;;6.50;1.00;;;;;;5128189;27;20461;-58
2022/02/05 00:43:14;;;;;;;2.23;0.60;;;6.50;1.00;;;;;;5128090;27;20520;-58
2022/02/05 00:45:44;;;;;;;0.53;0.53;;;6.50;1.00;;;;;;5127797;27;20801;-59
2022/02/05 00:48:12;;;;;;;0.93;0.40;;;6.50;1.00;;;;;;5132203;27;20526;-58
2022/02/05 00:50:41;;;;;;;0.33;0.23;;;6.30;1.00;;;;;;5112051;27;20450;-57
2022/02/05 00:55:36;;;;;;;0.33;0.27;;;6.30;1.00;;;;;;5128993;27;20454;-58
2022/02/05 00:58:05;;;;;;;0.40;0.40;;;6.10;1.00;;;;;;5127510;27;20201;-57
2022/02/05 01:00:34;;;;;;;0.73;0.50;;;6.10;1.00;;;;;;5129090;27;20481;-58
2022/02/05 01:03:00;;;;;;;1.50;0.60;;;6.20;1.00;;;;;;5128291;27;20912;-57
2022/02/05 01:05:26;;;;;;;0.70;0.40;;;;;;;;;;5124969;27;20439;-57
2022/02/05 01:07:52;;;;;;;1.63;0.70;;;6.20;1.00;;;;;;5129633;27;20940;-58
2022/02/05 01:10:18;;;;;;;1.03;0.60;;;6.20;1.00;;;;;;5128523;27;20449;-58
2022/02/05 01:12:50;;;;;;;1.53;0.57;;;6.10;1.00;;;;;;5126480;27;21096;-58
2022/02/05 01:15:20;;;;;;;0.37;0.37;;;;;;;;;;5123465;27;20667;-58
2022/02/05 01:17:53;;;;;;;1.17;0.40;;;;;;;;;;5126987;27;20904;-58
2022/02/05 01:20:46;;;;;;;0.53;0.37;;;6.20;1.00;;;;;;5128655;27;20450;-58
2022/02/05 01:23:11;;;;;;;0.33;0.30;;;6.20;1.00;;;;;;5124378;27;20530;-58
2022/02/05 01:25:43;;;;;;;1.23;0.33;;;6.20;1.00;;;;;;5118696;27;20442;-58
2022/02/05 01:28:14;;;;;;;0.47;0.40;;;6.30;1.00;;;;;;5126753;27;20491;-57
2022/02/05 01:30:44;;;;;;;0.43;0.30;;;6.20;1.00;;;;;;5124884;27;20446;-57
2022/02/05 01:57:35;;;;;;;0.40;0.40;;;5.90;1.00;;;;;;5130276;27;20575;-57
2022/02/05 02:04:48;;;;;;;0.80;0.80;;;5.90;1.00;;;;;;5108640;27;20780;-58
2022/02/05 02:05:37;;;;;;;4.00;1.20;;;5.90;1.00;;;;;;5128498;27;20508;-57
2022/02/05 02:14:03;;;;;;;1.43;1.00;;;5.90;1.00;;;;;;5095635;27;20462;-56
2022/02/05 02:19:26;;;;;;;8.30;1.47;;;6.00;1.00;;;;;;5127963;27;20461;-56
2022/02/05 02:30:26;;;;;;;2.17;1.20;;;6.10;1.00;;;;;;5093335;28;20439;-56
2022/02/05 02:33:01;;;;;;;1.63;1.00;;;6.10;1.00;;;;;;5107825;28;20783;-58
2022/02/05 02:35:29;;;;;;;1.93;1.20;;;6.10;1.00;;;;;;5124702;27;20473;-57
2022/02/05 02:38:00;;;;;;;1.60;0.90;;;6.00;1.00;;;;;;5110112;28;20472;-57
2022/02/05 02:40:39;;;;;;;5.90;2.03;;;5.90;1.00;;;;;;5125508;27;20443;-57
2022/02/05 02:43:11;;;;;;;3.47;2.10;;;5.80;1.00;;;;;;5124734;27;20451;-58
2022/02/05 02:45:37;;;;;;;0.90;0.80;;;5.80;1.00;;;;;;5126173;27;20522;-57
2022/02/05 02:48:02;;;;;;;2.73;1.80;;;5.90;1.00;;;;;;5127867;27;20941;-57
2022/02/05 02:58:27;;;;;;;3.57;1.07;;;5.60;1.00;;;;;;5122966;27;20457;-57
2022/02/05 03:00:58;;;;;;;3.17;1.47;;;5.60;1.00;;;;;;5112770;27;20450;-58
2022/02/05 03:03:24;;;;;;;0.93;0.87;;;5.50;1.00;;;;;;5130916;27;20521;-57
2022/02/05 03:05:50;;;;;;;1.83;1.30;;;5.50;1.00;;;;;;5132348;27;20533;-57
2022/02/05 03:08:16;;;;;;;1.40;1.30;;;;;;;;;;5133434;27;20959;-58
2022/02/05 03:10:42;;;;;;;5.90;1.33;;;5.50;1.00;;;;;;5125439;27;20185;-57
2022/02/05 03:13:07;;;;;;;1.03;0.90;;;5.50;1.00;;;;;;5133794;27;20833;-57
2022/02/05 03:15:38;;;;;;;10.30;1.67;;;5.40;1.00;;;;;;5131907;27;20226;-57
2022/02/05 03:18:09;;;;;;;1.17;1.07;;;5.40;1.00;;;;;;5131905;27;20174;-58
2022/02/05 03:20:35;;;;;;;2.93;1.10;;;5.50;1.00;;;;;;5129177;27;20960;-57
2022/02/05 03:23:02;;;;;;;3.30;1.70;;;5.50;1.00;;;;;;5122517;27;20450;-57
2022/02/05 03:25:32;;;;;;;7.57;1.80;;;5.40;1.00;;;;;;5103331;27;20238;-57
2022/02/05 03:28:01;;;;;;;2.50;2.03;;;5.50;1.00;;;;;;5131007;27;20495;-58
2022/02/05 03:30:27;;;;;;;8.17;2.13;;;5.70;1.00;;;;;;5124151;27;20504;-57
2022/02/05 03:32:52;;;;;;;3.40;1.67;;;5.60;1.00;;;;;;5131025;27;20490;-58
2022/02/05 03:35:18;;;;;;;2.53;1.50;;;5.50;1.00;;;;;;5129877;27;20804;-58
2022/02/05 03:37:44;;;;;;;2.30;1.60;;;5.40;1.00;;;;;;5132510;27;20185;-58
2022/02/05 03:40:10;;;;;;;3.00;1.50;;;5.40;1.00;;;;;;5132592;27;20248;-57
2022/02/05 03:42:36;;;;;;;4.23;1.60;;;5.50;1.00;;;;;;5126825;27;20184;-58
2022/02/05 03:45:03;;;;;;;3.23;1.67;;;5.60;1.00;;;;;;5127110;27;20474;-57
2022/02/05 03:47:32;;;;;;;2.97;1.27;;;5.60;1.00;;;;;;5133742;27;20177;-57
2022/02/05 03:49:58;;;;;;;3.70;1.53;;;5.70;1.00;;;;;;5132214;27;20503;-58
2022/02/05 03:52:23;;;;;;;2.37;1.50;;;5.80;1.00;;;;;;5132885;27;20443;-57
2022/02/05 03:54:49;;;;;;;2.87;1.40;;;5.80;1.00;;;;;;5133865;27;20434;-57
2022/02/05 03:57:15;;;;;;;3.57;1.20;;;5.80;1.00;;;;;;5128536;27;20261;-57
2022/02/05 03:59:40;;;;;;;3.50;1.63;;;5.70;1.00;;;;;;5129792;27;20181;-57
2022/02/05 04:02:06;;;;;;;5.30;1.57;;;5.50;1.00;;;;;;5131184;27;20190;-56
2022/02/05 04:04:32;;;;;;;2.30;1.80;;;5.50;1.00;;;;;;5132758;27;20710;-57
2022/02/05 04:06:57;;;;;;;4.43;2.00;;;5.60;1.00;;;;;;5131753;27;20182;-57
2022/02/05 04:09:29;;;;;;;2.60;1.60;;;5.60;1.00;;;;;;5131132;27;20539;-57
2022/02/05 04:17:05;;;;;;;3.10;1.30;;;5.30;1.00;;;;;;5133312;27;20229;-57
2022/02/05 04:19:30;;;;;;;2.37;1.60;;;5.30;1.00;;;;;;5132870;27;20468;-57
2022/02/05 04:21:56;;;;;;;2.47;1.90;;;;;;;;;;5130622;27;20185;-57
2022/02/05 04:24:22;;;;;;;5.03;1.70;;;5.50;1.00;;;;;;5130766;27;20188;-57
2022/02/05 04:26:47;;;;;;;3.57;2.53;;;5.50;1.00;;;;;;5127028;27;20450;-57
2022/02/05 04:29:13;;;;;;;3.50;1.73;;;5.60;1.00;;;;;;5125522;27;20238;-57
2022/02/05 04:31:39;;;;;;;4.73;1.80;;;5.60;1.00;;;;;;5128368;27;20193;-58
2022/02/05 04:34:05;;;;;;;1.73;1.63;;;5.60;1.00;;;;;;5132045;27;20201;-57
2022/02/05 04:36:32;;;;;;;4.77;1.33;;;5.50;1.00;;;;;;5130803;27;20785;-58
2022/02/05 04:39:05;;;;;;;1.93;1.80;;;5.60;1.00;;;;;;5129374;27;20442;-58
2022/02/05 04:41:39;;;;;;;4.57;1.50;;;5.70;1.00;;;;;;5127579;27;20452;-57
2022/02/05 04:44:22;;;;;;;3.27;1.90;;;5.70;1.00;;;;;;5129963;27;20913;-56
2022/02/05 04:54:56;;;;;;;2.10;1.70;;;5.70;1.00;;;;;;5121546;27;20482;-57
2022/02/05 04:57:48;;;;;;;4.53;1.83;;;5.80;1.00;;;;;;5129052;27;20178;-58
2022/02/05 05:00:25;;;;;;;3.73;1.77;;;5.80;1.00;;;;;;5123589;27;20438;-57
2022/02/05 05:03:05;;;;;;;2.77;1.73;;;5.70;1.00;;;;;;5128193;27;20448;-57
2022/02/05 05:11:24;;;;;;;4.57;1.97;;;5.80;1.00;;;;;;5123976;27;20445;-57
2022/02/05 05:21:23;;;;;;;3.43;1.80;;;5.70;1.00;;;;;;5130205;27;20997;-57
2022/02/05 05:23:49;;;;;;;3.30;1.90;;;5.60;1.00;;;;;;5130525;27;20451;-57
2022/02/05 05:26:14;;;;;;;5.33;1.80;;;5.60;1.00;;;;;;5128432;27;20204;-56
2022/02/05 05:28:40;;;;;;;2.93;1.90;;;5.60;1.00;;;;;;5123920;27;20199;-57
2022/02/05 05:31:06;;;;;;;2.80;1.40;;;;;;;;;;5125811;27;20192;-57
2022/02/05 05:33:31;;;;;;;4.60;1.80;;;5.50;1.00;;;;;;5127818;27;20624;-57
2022/02/05 05:35:57;;;;;;;3.87;1.73;;;5.50;1.00;;;;;;5126915;27;20504;-57
2022/02/05 05:38:23;;;;;;;7.33;2.03;;;5.40;1.00;;;;;;5129009;27;20177;-57
2022/02/05 05:40:48;;;;;;;3.67;2.27;;;5.50;1.00;;;;;;5127638;27;20250;-57
2022/02/05 05:43:34;;;;;;;1.67;1.57;;;5.30;1.00;;;;;;5125451;27;20650;-56
2022/02/05 05:46:30;;;;;;;4.13;3.27;;;5.20;1.00;;;;;;5127265;27;20285;-57
2022/02/05 05:48:59;;;;;;;2.60;2.40;;;5.30;1.00;;;;;;5111092;27;20454;-57
2022/02/05 05:51:25;;;;;;;3.33;1.80;;;5.20;1.00;;;;;;5128548;27;20765;-56
2022/02/05 05:53:50;;;;;;;2.50;2.17;;;5.20;1.00;;;;;;5127381;27;20566;-57
2022/02/05 05:56:21;;;;;;;5.67;2.13;;;5.20;1.00;;;;;;5126443;27;20705;-57
2022/02/05 05:58:48;;;;;;;4.70;2.67;;;5.30;1.00;;;;;;5126414;27;20173;-57
2022/02/05 06:01:15;;;;;;;3.90;2.00;;;5.20;1.00;;;;;;5127206;27;20962;-56
2022/02/05 06:03:41;;;;;;;2.43;2.10;;;5.10;1.00;;;;;;5124620;27;20780;-57
2022/02/05 06:06:07;;;;;;;1.97;1.40;;;5.20;1.00;;;;;;5125767;27;20451;-57
2022/02/05 06:08:32;;;;;;;3.83;1.87;;;5.20;1.00;;;;;;5127132;27;20457;-57
2022/02/05 06:10:58;;;;;;;4.13;1.93;;;5.10;1.00;;;;;;5115001;27;20281;-57
2022/02/05 06:13:23;;;;;;;2.00;1.90;;;5.10;1.00;;;;;;5108344;28;20348;-57
2022/02/05 06:15:51;;;;;;;5.43;2.80;;;5.10;1.00;;;;;;5130244;27;20173;-57
2022/02/05 06:18:17;;;;;;;5.73;2.67;;;5.10;1.00;;;;;;5129937;27;20281;-57
2022/02/05 06:20:43;;;;;;;8.60;2.37;;;5.00;1.00;;;;;;5128637;27;20521;-57
2022/02/05 06:23:08;;;;;;;2.67;2.33;;;5.20;1.00;;;;;;5115311;27;20197;-57
2022/02/05 06:25:35;;;;;;;5.57;2.80;;;5.30;1.00;;;;;;5117929;27;20195;-56
2022/02/05 06:28:01;;;;;;;2.60;1.70;;;5.30;1.00;;;;;;5120302;28;20217;-57
2022/02/05 06:30:28;;;;;;;4.60;1.87;;;5.30;1.00;;;;;;5114997;28;21089;-56
2022/02/05 06:32:53;;;;;;;4.30;2.17;;;5.20;1.00;;;;;;5113544;28;20300;-57
2022/02/05 06:35:20;;;;;;;3.90;1.90;;;5.30;1.00;;;;;;5126686;27;20520;-57
2022/02/05 06:37:46;;;;;;;4.13;1.70;;;5.40;1.00;;;;;;5133277;27;20185;-57
2022/02/05 06:40:12;;;;;;;2.07;1.87;;;5.50;1.00;;;;;;5132678;27;20495;-56
2022/02/05 06:42:37;;;;;;;4.00;2.53;;;5.50;1.00;;;;;;5123408;27;20842;-57
2022/02/05 06:45:03;;;;;;;4.00;3.20;;;5.40;1.00;;;;;;5131215;27;20663;-56
2022/02/05 06:47:30;;;;;;;3.00;2.47;;;5.50;1.00;;;;;;5133164;27;20221;-57
2022/02/05 06:49:55;;;;;;;7.17;2.80;;;5.50;1.00;;;;;;5131972;27;20472;-57
2022/02/05 06:52:21;;;;;;;4.40;2.50;;;5.50;1.00;;;;;;5133528;27;20485;-57
2022/02/05 06:54:47;;;;;;;6.63;2.90;;;;;;;;;;5129831;27;20658;-57
2022/02/05 06:57:12;;;;;;;3.00;2.70;;;3.20;1.00;;;;;;5130213;27;20228;-57
2022/02/05 06:59:38;;;;;;;2.70;2.10;;;5.60;1.00;;;;;;5130943;27;20931;-57
2022/02/05 07:02:04;;;;;;;4.90;2.00;;;5.50;1.00;;;;;;5128474;27;20189;-57
2022/02/05 07:04:29;;;;;;;3.77;2.60;;;5.50;1.00;;;;;;5130221;27;20189;-57
2022/02/05 07:06:57;;;;;;;3.33;2.23;;;5.60;1.00;;;;;;5131894;27;20193;-57
2022/02/05 07:09:24;;;;;;;2.07;1.90;;;5.60;1.00;;;;;;5132489;27;20398;-57
2022/02/05 07:11:56;;;;;;;6.50;2.53;;;5.60;1.00;;;;;;5125695;27;20493;-57
2022/02/05 07:14:24;;;;;;;5.47;2.43;;;5.50;1.00;;;;;;5130300;27;20557;-57
2022/02/05 07:16:57;;;;;;;4.00;2.60;;;5.60;1.00;;;;;;5132534;27;20442;-57
2022/02/05 07:19:42;;;;;;;2.43;2.23;;;;;;;;;;5132111;27;20461;-56
2022/02/05 07:22:08;;;;;;;6.73;2.20;;;5.80;1.00;;;;;;5131852;27;20442;-57
2022/02/05 07:24:53;;;;;;;5.30;2.10;;;5.80;1.00;;;;;;5129816;27;20951;-56
2022/02/05 07:30:04;;;;;;;3.77;2.40;;;5.80;1.00;;;;;;5131946;27;20792;-55
2022/02/05 07:32:29;;;;;;;3.60;2.07;;;5.70;1.00;;;;;;5130671;27;20502;-56
2022/02/05 07:34:55;;;;;;;6.00;2.07;;;5.70;1.00;;;;;;5131984;27;20438;-57
2022/02/05 07:37:20;;;;;;;3.83;1.70;;;5.90;1.00;;;;;;5129227;27;20572;-56
2022/02/05 07:39:48;;;;;;;3.40;1.90;;;6.00;1.00;;;;;;5129918;27;20318;-56
2022/02/05 07:42:18;;;;;;;4.20;2.03;;;6.00;1.00;;;;;;5108793;27;20196;-57
2022/02/05 07:44:46;;;;;;;3.50;1.83;;;6.00;1.00;;;;;;5131409;27;20445;-56
2022/02/05 07:47:12;;;;;;;3.30;2.10;;;6.00;1.00;;;;;;5132599;27;20495;-57
2022/02/05 07:49:39;;;;;;;3.33;2.10;;;6.10;1.00;;;;;;5131511;27;20951;-56
2022/02/05 07:52:05;;;;;;;2.07;1.87;;;6.10;1.00;;;;;;5129994;27;20209;-57
2022/02/05 07:54:31;;;;;;;3.03;2.20;;;6.10;1.00;;;;;;5130311;27;20463;-56
2022/02/05 07:56:56;;;;;;;4.13;2.50;;;6.10;1.00;;;;;;5131148;27;20434;-56
2022/02/05 07:59:22;;;;;;;2.47;2.27;;;6.10;1.00;;;;;;5129074;27;20182;-56
2022/02/05 08:01:47;;;;;;;4.43;2.30;;;6.00;1.00;;;;;;5131188;27;20282;-56
2022/02/05 08:04:13;;;;;;;5.13;2.30;;;6.10;1.00;;;;;;5131196;27;20189;-56
2022/02/05 08:06:39;;;;;;;3.63;2.40;;;;;;;;;;5133076;27;20682;-58
2022/02/05 08:09:34;;;;;;;2.60;2.40;;;6.10;1.00;;;;;;5132538;27;20259;-57
2022/02/05 08:14:22;;;;;;;3.57;2.40;;;6.00;1.00;;;;;;5131579;27;20546;-56
2022/02/05 08:16:53;;;;;;;5.30;2.20;;;6.10;1.00;;;;;;5127315;27;20542;-57
2022/02/05 08:19:19;;;;;;;4.60;1.97;;;6.20;1.00;;;;;;5132338;27;20983;-57
2022/02/05 08:21:45;;;;;;;3.33;2.70;;;6.30;1.00;;;;;;5129385;27;20439;-57
2022/02/05 08:24:11;;;;;;;5.00;2.07;;;6.40;1.00;;;;;;5132205;27;20196;-57
2022/02/05 08:26:39;;;;;;;3.90;2.20;;;6.40;1.00;;;;;;5112114;27;20269;-57
2022/02/05 08:29:06;;;;;;;3.97;1.97;;;6.40;1.00;;;;;;5130652;27;20177;-57
2022/02/05 08:31:31;;;;;;;5.57;1.90;;;6.40;1.00;;;;;;5129078;27;20437;-57
2022/02/05 08:33:57;;;;;;;5.67;1.90;;;6.40;1.00;;;;;;5131449;27;20467;-57
2022/02/05 08:36:24;;;;;;;4.50;1.83;;;6.30;1.00;;;;;;5132788;27;20246;-57
2022/02/05 08:38:52;;;;;;;3.60;2.47;;;6.40;1.00;;;;;;5131405;27;20565;-58
2022/02/05 08:41:17;;;;;;;2.53;2.13;;;6.40;1.00;;;;;;5112253;27;20448;-58
2022/02/05 08:43:43;;;;;;;3.90;2.57;;;6.40;1.00;;;;;;5124856;27;20529;-58
2022/02/05 08:46:09;;;;;;;6.10;2.70;;;6.50;1.00;;;;;;5131652;27;20292;-57
2022/02/05 08:48:35;;;;;;;3.40;2.10;;;;;;;;;;5130101;27;20178;-57
2022/02/05 08:51:00;;;;;;;5.63;2.00;;;6.80;1.00;;;;;;5111338;27;20177;-59
2022/02/05 08:53:26;;;;;;;4.53;2.00;;;6.80;1.00;;;;;;5130931;27;20999;-58
2022/02/05 08:55:53;;;;;;;2.50;2.30;;;6.80;1.00;;;;;;5130841;27;20178;-57
2022/02/05 08:58:19;;;;;;;4.53;2.13;;;6.80;1.00;;;;;;5127454;27;20675;-57
2022/02/05 09:00:50;;;;;;;6.43;2.37;;;6.80;1.00;;;;;;5130039;27;20522;-57
2022/02/05 09:03:27;;;;;;;3.77;2.17;;;6.80;1.00;;;;;;5131443;27;20477;-58
2022/02/05 09:05:53;;;;;;;5.30;2.20;;;6.70;1.00;;;;;;5129855;27;20461;-58
2022/02/05 09:08:33;;;;;;;9.10;2.33;;;;;;;;;;5132120;27;20439;-57
2022/02/05 09:13:57;;;;;;;2.70;2.00;;;6.80;1.00;;;;;;5129003;27;21091;-57
2022/02/05 09:16:24;;;;;;;3.97;2.80;;;6.70;1.00;;;;;;5129754;27;20439;-57
2022/02/05 09:18:50;;;;;;;2.80;2.10;;;6.80;1.00;;;;;;5124672;27;20807;-57
2022/02/05 09:21:16;;;;;;;2.77;2.23;;;6.90;1.00;;;;;;5125958;27;20439;-57
2022/02/05 09:23:45;;;;;;;5.83;3.00;;;6.80;1.00;;;;;;5130638;27;20442;-58
2022/02/05 09:26:12;;;;;;;4.50;2.30;;;6.80;1.00;;;;;;5129053;27;20446;-57
2022/02/05 09:28:41;;;;;;;2.30;2.10;;;6.80;1.00;;;;;;5126994;27;20814;-57
2022/02/05 09:33:36;;;;;;;10.73;2.30;;;6.80;1.00;;;;;;5129627;27;20827;-58
2022/02/05 09:36:03;;;;;;;4.23;3.10;;;6.80;1.00;;;;;;5128875;27;20178;-57
2022/02/05 09:38:29;;;;;;;3.00;1.70;;;6.80;1.00;;;;;;5108760;27;20474;-57
2022/02/05 09:40:56;;;;;;;4.60;1.50;;;6.90;1.00;;;;;;5131636;27;20471;-57
2022/02/05 09:43:27;;;;;;;2.50;1.93;;;7.10;1.00;;;;;;5112024;27;20238;-58
2022/02/05 09:45:56;;;;;;;2.80;1.97;;;7.30;1.00;;;;;;5124428;27;20470;-58
2022/02/05 09:48:23;;;;;;;6.10;2.27;;;7.30;1.00;;;;;;5131257;27;20477;-58
2022/02/05 09:50:49;;;;;;;4.83;2.10;;;7.30;1.00;;;;;;5127226;27;20443;-58
2022/02/05 09:53:17;;;;;;;2.40;2.17;;;7.40;1.00;;;;;;5111088;27;20519;-58
2022/02/05 09:55:44;;;;;;;4.10;2.40;;;7.50;1.00;;;;;;5129428;27;20450;-58
2022/02/05 09:58:11;;;;;;;3.90;2.10;;;;;;;;;;5127756;27;20464;-58
2022/02/05 10:00:37;;;;;;;2.40;1.63;;;7.60;1.00;;;;;;5130122;27;20457;-58
2022/02/05 10:03:03;;;;;;;4.33;2.40;;;7.50;1.00;;;;;;5107712;27;20450;-57
2022/02/05 10:05:32;;;;;;;4.43;2.10;;;7.60;1.00;;;;;;5126710;27;20439;-57
2022/02/05 10:08:03;;;;;;;4.10;2.23;;;7.60;1.00;;;;;;5130122;27;20451;-58
2022/02/05 10:10:43;;;;;;;5.63;2.30;;;7.70;1.00;;;;;;5129015;27;20435;-57
2022/02/05 10:13:20;;;;;;;3.57;2.30;;;7.80;1.00;;;;;;5124076;27;20463;-57
2022/02/05 10:15:53;;;;;;;5.33;1.90;;;6.80;1.00;;;;;;5128987;27;20431;-58
2022/02/05 10:18:45;;;;;;;5.10;2.47;;;;;;;;;;5110605;27;20447;-58
2022/02/05 10:21:26;;;;;;;3.07;2.07;;;7.50;1.00;;;;;;5124502;27;20551;-58
2022/02/05 10:23:59;;;;;;;3.40;2.13;;;7.30;1.00;;;;;;5129286;27;20442;-59
2022/02/05 10:26:50;;;;;;;4.80;2.40;;;7.30;1.00;;;;;;5129114;27;20427;-58
2022/02/05 10:29:19;;;;;;;7.13;2.00;;;7.30;1.00;;;;;;5122807;27;20951;-59
2022/02/05 10:32:10;;;;;;;3.00;1.90;;;7.50;1.00;;;;;;5128944;27;20438;-59
2022/02/05 10:35:01;;;;;;;3.77;2.60;;;7.50;1.00;;;;;;5124144;27;20491;-57
2022/02/05 10:37:33;;;;;;;5.17;2.57;;;7.60;1.00;;;;;;5126965;28;20410;-58
2022/02/05 10:40:14;;;;;;;2.50;1.87;;;7.60;1.00;;;;;;5111800;28;20430;-57
2022/02/05 10:45:24;;;;;;;3.70;2.27;;;7.70;1.00;;;;;;5112458;28;20843;-57
2022/02/05 10:47:56;;;;;;;1.90;1.70;;;7.70;1.00;;;;;;5129893;28;20417;-57
2022/02/05 10:50:31;;;;;;;2.13;1.80;;;7.60;1.00;;;;;;5129151;27;20178;-57
2022/02/05 10:53:02;;;;;;;4.63;2.47;;;7.70;1.00;;;;;;5127423;27;20850;-57
2022/02/05 10:56:09;;;;;;;6.93;2.40;;;7.60;1.00;;;;;;5129606;27;20780;-57
2022/02/05 11:06:54;;;;;;;4.97;2.57;;;7.70;1.00;;;;;;5128689;28;20435;-57
2022/02/05 11:09:23;;;;;;;2.73;2.10;;;7.80;1.00;;;;;;5128873;28;20447;-56
2022/02/05 11:20:31;;;;;;;4.70;1.63;;;8.10;1.00;;;;;;5127512;27;20787;-57
2022/02/05 11:23:06;;;;;;;6.50;2.10;;;8.10;1.00;;;;;;5114495;27;20439;-57
2022/02/05 11:25:35;;;;;;;4.40;1.80;;;8.00;1.00;;;;;;5132021;27;20509;-57
2022/02/05 11:28:01;;;;;;;1.90;1.70;;;7.90;1.00;;;;;;5135626;27;20453;-56
2022/02/05 11:30:27;;;;;;;2.57;2.17;;;7.60;1.00;;;;;;5127902;27;20570;-57
2022/02/05 11:32:59;;;;;;;2.63;1.43;;;7.50;1.00;;;;;;5129445;27;20246;-56
2022/02/05 11:36:19;;;;;;;4.27;2.10;;;7.40;1.00;;;;;;5125871;27;20178;-56
2022/02/05 11:38:35;;;;;;;2.70;1.40;;;7.60;1.00;;;;;;5123070;27;20406;-57
2022/02/05 11:41:02;;;;;;;3.13;1.57;;;7.60;1.00;;;;;;5130215;27;20450;-57
2022/02/05 11:43:29;;;;;;;4.30;1.57;;;7.60;1.00;;;;;;5129204;27;20434;-57
2022/02/05 11:46:04;;;;;;;1.60;1.20;;;7.70;1.00;;;;;;5128130;27;20477;-57
2022/02/05 11:49:05;;;;;;;3.80;1.73;;;7.80;1.00;;;;;;5106888;27;20434;-56
2022/02/05 11:51:42;;;;;;;4.30;1.63;;;7.90;1.00;;;;;;5129291;27;20538;-59
2022/02/05 11:54:10;;;;;;;2.50;1.87;;;8.10;1.00;;;;;;5127513;27;20553;-58
2022/02/05 11:57:07;;;;;;;2.70;1.30;;;8.30;1.00;;;;;;5126441;27;20436;-58
2022/02/05 11:59:56;;;;;;;1.97;1.20;;;8.20;1.00;;;;;;5107158;27;20439;-58
2022/02/05 12:02:23;;;;;;;3.43;1.53;;;8.30;1.00;;;;;;5126482;27;20431;-58
2022/02/05 12:05:10;;;;;;;1.90;1.23;;;8.20;1.00;;;;;;5108973;27;20829;-58
2022/02/05 12:07:36;;;;;;;2.70;1.20;;;;;;;;;;5127134;27;20468;-59
2022/02/05 12:10:38;;;;;;;2.00;1.17;;;8.20;1.00;;;;;;5124495;27;20440;-59
2022/02/05 12:13:17;;;;;;;2.33;1.57;;;8.30;1.00;;;;;;5122837;27;20429;-58
2022/02/05 12:16:02;;;;;;;4.43;1.30;;;8.60;1.00;;;;;;5128975;27;20624;-58
2022/02/05 12:18:30;;;;;;;3.20;1.83;;;8.70;1.00;;;;;;5108455;27;20439;-58
2022/02/05 12:21:06;;;;;;;3.67;1.53;;;8.80;1.00;;;;;;5129847;27;20430;-57
2022/02/05 12:26:29;;;;;;;4.77;1.63;;;8.50;1.00;;;;;;5125943;27;20413;-59
2022/02/05 12:28:59;;;;;;;1.30;1.20;;;8.20;1.00;;;;;;5131061;27;20478;-59
2022/02/05 12:31:34;;;;;;;4.07;1.23;;;8.00;1.00;;;;;;5126423;27;20410;-57
2022/02/05 12:34:10;;;;;;;3.13;1.10;;;7.80;1.00;;;;;;5130990;27;20873;-58
2022/02/05 12:36:39;;;;;;;3.03;1.00;;;7.70;1.00;;;;;;5125353;27;20892;-58
2022/02/05 12:39:08;;;;;;;2.83;1.47;;;7.70;1.00;;;;;;5130059;27;20462;-58
2022/02/05 12:41:35;;;;;;;3.07;1.80;;;7.80;1.00;;;;;;5127112;27;20987;-59
2022/02/05 12:44:06;;;;;;;3.90;1.30;;;7.70;1.00;;;;;;5125975;27;20929;-58
2022/02/05 12:46:48;;;;;;;4.40;1.40;;;7.70;1.00;;;;;;5127077;27;20538;-58
2022/02/05 12:49:25;;;;;;;2.70;0.90;;;7.90;1.00;;;;;;5128758;27;20839;-59
2022/02/05 12:51:52;;;;;;;1.77;1.00;;;8.00;1.00;;;;;;5126762;27;20474;-58
2022/02/05 12:54:21;;;;;;;4.10;1.10;;;8.30;1.00;;;;;;5129450;27;20975;-58
2022/02/05 12:56:48;;;;;;;1.83;1.17;;;8.60;1.00;;;;;;5125711;27;20436;-58
2022/02/05 12:59:26;;;;;;;2.10;1.63;;;8.70;1.00;;;;;;5127566;27;20879;-60
2022/02/05 13:02:04;;;;;;;5.17;1.30;;;8.80;1.00;;;;;;5124670;27;20887;-59
2022/02/05 13:04:36;;;;;;;3.40;1.33;;;8.70;1.00;;;;;;5119868;27;20534;-59
2022/02/05 13:07:03;;;;;;;3.17;1.23;;;8.60;1.00;;;;;;5125388;27;20821;-59
2022/02/05 13:09:30;;;;;;;2.20;0.90;;;8.40;1.00;;;;;;5128138;27;20439;-58
2022/02/05 13:12:04;;;;;;;2.50;1.27;;;8.30;1.00;;;;;;5128248;27;20450;-58
2022/02/05 13:15:03;;;;;;;2.10;1.30;;;8.20;1.00;;;;;;5127018;27;20556;-59
2022/02/05 13:25:54;;;;;;;1.43;1.23;;;8.20;1.00;;;;;;5124337;27;20442;-62
2022/02/05 13:36:43;;;;;;;1.77;1.00;;;8.40;1.00;;;;;;5127940;27;20446;-59
2022/02/05 13:42:02;;;;;;;2.23;1.60;;;8.10;1.00;;;;;;5120138;27;20439;-59
2022/02/05 13:45:02;;;;;;;2.97;1.30;;;8.30;1.00;;;;;;5119950;27;20450;-59
2022/02/05 13:47:36;;;;;;;3.73;1.13;;;8.60;1.00;;;;;;5103232;27;20529;-59
2022/02/05 13:50:09;;;;;;;3.00;1.30;;;8.80;1.00;;;;;;5127823;27;21011;-60
2022/02/05 13:52:42;;;;;;;3.43;1.83;;;8.90;1.00;;;;;;5127834;27;20469;-59
2022/02/05 13:55:34;;;;;;;3.00;1.43;;;8.80;1.00;;;;;;5128254;27;20492;-59
2022/02/05 13:58:01;;;;;;;1.60;1.30;;;8.80;1.00;;;;;;5113941;27;20820;-59
2022/02/05 14:00:44;;;;;;;4.57;2.00;;;9.00;1.00;;;;;;5128644;27;20435;-59
2022/02/05 14:03:12;;;;;;;3.13;1.30;;;8.80;1.00;;;;;;5124801;27;20461;-59
2022/02/05 14:06:00;;;;;;;1.80;1.17;;;8.60;1.00;;;;;;5130361;27;20453;-59
2022/02/05 14:08:41;;;;;;;5.77;1.60;;;8.60;1.00;;;;;;5124408;27;20438;-58
2022/02/05 14:11:08;;;;;;;3.53;1.47;;;8.60;1.00;;;;;;5123346;27;20478;-58
2022/02/05 14:13:36;;;;;;;3.83;1.40;;;8.60;1.00;;;;;;5127026;27;20459;-58
2022/02/05 14:16:04;;;;;;;3.30;1.40;;;8.60;1.00;;;;;;5109771;27;20518;-59
2022/02/05 14:18:31;;;;;;;2.00;1.17;;;8.50;1.00;;;;;;5122708;27;20661;-58
2022/02/05 14:21:02;;;;;;;1.83;1.37;;;8.70;1.00;;;;;;5126069;27;20488;-59
2022/02/05 14:23:32;;;;;;;3.20;1.47;;;8.90;1.00;;;;;;5126127;27;21027;-59
2022/02/05 14:26:08;;;;;;;1.90;1.20;;;8.80;1.00;;;;;;5127282;27;20439;-59
2022/02/05 14:28:46;;;;;;;2.30;1.03;;;8.80;1.00;;;;;;5124922;27;20431;-58
2022/02/05 14:36:38;;;;;;;2.00;1.10;;;8.50;1.00;;;;;;5126579;28;20447;-60
2022/02/05 14:41:52;;;;;;;3.93;1.70;;;8.40;1.00;;;;;;5125651;27;20449;-59
2022/02/05 14:44:18;;;;;;;1.70;1.20;;;8.60;1.00;;;;;;5107703;28;21097;-58
2022/02/05 14:46:44;;;;;;;1.77;1.67;;;8.50;1.00;;;;;;5127406;27;20647;-58
2022/02/05 14:49:10;;;;;;;6.23;1.47;;;8.60;1.00;;;;;;5124843;28;20234;-60
2022/02/05 14:51:36;;;;;;;3.73;1.03;;;8.50;1.00;;;;;;5125869;28;20189;-59
2022/02/05 14:54:03;;;;;;;1.43;1.17;;;8.40;1.00;;;;;;5123495;28;20941;-59
2022/02/05 14:56:28;;;;;;;2.00;1.33;;;8.30;1.00;;;;;;5129107;27;20438;-60
2022/02/05 14:58:54;;;;;;;2.30;0.80;;;8.30;1.00;;;;;;5128380;27;20786;-58
2022/02/05 15:01:22;;;;;;;1.13;0.97;;;8.40;1.00;;;;;;5128306;27;20541;-58
2022/02/05 15:03:49;;;;;;;1.30;1.00;;;8.50;1.00;;;;;;5130957;27;20192;-59
2022/02/05 15:06:20;;;;;;;1.57;1.00;;;8.40;1.00;;;;;;5133163;27;22067;-58
2022/02/05 15:08:47;;;;;;;3.57;1.00;;;8.30;1.00;;;;;;5132195;27;20784;-58
2022/02/05 15:11:16;;;;;;;1.73;0.90;;;8.30;1.00;;;;;;5127928;27;22365;-59
2022/02/05 15:13:42;;;;;;;1.40;1.00;;;8.30;1.00;;;;;;5127090;27;20458;-62
2022/02/05 15:16:13;;;;;;;1.67;0.87;;;8.40;1.00;;;;;;5126530;27;20439;-57
2022/02/05 15:18:41;;;;;;;4.60;1.60;;;8.20;1.00;;;;;;5129778;27;20438;-58
2022/02/05 15:21:10;;;;;;;1.90;0.93;;;8.10;1.00;;;;;;5128381;27;20443;-57
2022/02/05 15:23:36;;;;;;;5.50;1.50;;;8.00;1.00;;;;;;5129499;27;21191;-56
2022/02/05 15:26:03;;;;;;;3.13;1.23;;;8.00;1.00;;;;;;5128176;27;20439;-58
2022/02/05 15:28:29;;;;;;;1.33;0.93;;;7.90;1.00;;;;;;5127184;27;20190;-56
2022/02/05 15:30:55;;;;;;;1.97;0.90;;;7.90;1.00;;;;;;5112245;27;20454;-55
2022/02/05 15:33:21;;;;;;;2.10;1.47;;;8.00;1.00;;;;;;5125592;27;20478;-55
2022/02/05 15:35:48;;;;;;;2.50;1.23;;;8.10;1.00;;;;;;5130262;27;20182;-56
2022/02/05 15:38:20;;;;;;;2.50;1.10;;;8.20;1.00;;;;;;5123343;27;20454;-58
2022/02/05 15:45:56;;;;;;;3.30;1.30;;;8.30;1.00;;;;;;5118152;27;20660;-60
2022/02/05 15:48:21;;;;;;;1.57;1.30;;;8.30;1.00;;;;;;5118269;27;20193;-58
2022/02/05 15:50:47;;;;;;;2.50;1.73;;;;;;;;;;5123717;27;20193;-58
2022/02/05 15:53:14;;;;;;;2.80;1.37;;;7.90;1.00;;;;;;5116982;27;20555;-57
2022/02/05 15:55:39;;;;;;;3.50;1.63;;;7.80;1.00;;;;;;5122948;27;20451;-58
2022/02/05 15:58:11;;;;;;;1.97;1.20;;;7.70;1.00;;;;;;5126942;27;20443;-58
2022/02/05 16:00:39;;;;;;;4.10;1.50;;;7.60;1.00;;;;;;5128678;27;20299;-57
2022/02/05 16:03:07;;;;;;;2.37;1.50;;;7.60;1.00;;;;;;5109507;27;20458;-58
2022/02/05 16:05:33;;;;;;;2.10;1.40;;;7.70;1.00;;;;;;5127803;27;20507;-56
2022/02/05 16:07:58;;;;;;;2.87;1.40;;;7.70;1.00;;;;;;5127947;27;20438;-58
2022/02/05 16:10:24;;;;;;;2.40;1.60;;;7.60;1.00;;;;;;5124534;27;20542;-58
2022/02/05 16:12:50;;;;;;;2.00;1.63;;;7.50;1.00;;;;;;5128804;27;20216;-58
2022/02/05 16:15:17;;;;;;;2.17;1.63;;;7.50;1.00;;;;;;5130491;27;20203;-58
2022/02/05 16:17:44;;;;;;;4.33;1.80;;;7.50;1.00;;;;;;5111315;27;20443;-58
2022/02/05 16:20:12;;;;;;;2.53;1.67;;;7.50;1.00;;;;;;5129471;27;20435;-58
2022/02/05 16:22:39;;;;;;;2.80;1.50;;;7.50;1.00;;;;;;5125836;27;20547;-59
2022/02/05 16:25:11;;;;;;;2.30;1.60;;;7.50;1.00;;;;;;5126395;27;20451;-57
2022/02/05 16:27:38;;;;;;;4.97;1.87;;;7.30;1.00;;;;;;5127967;27;20707;-59
2022/02/05 16:30:08;;;;;;;2.13;1.30;;;7.40;1.00;;;;;;5126461;27;20462;-57
2022/02/05 16:32:35;;;;;;;3.73;2.60;;;7.30;1.00;;;;;;5125209;27;20446;-57